Weber, Minnesota
Current Conditions -  °F | °C
As of 4:15 AM on Friday 31 Oct 2014 (Local Time) from KROS Reporting Station
Scattered Clouds Scattered Clouds  
Wind Chill: 19°   Ceiling: Unl
Heat Index: 28°   Visibility: 10mi
Dew Point: 17°   Wind: 8mph
Humidity: 63%   Direction: 350°N
Pressure: 30.46"   Gusts: NA
Location:  45.5343°N, 92.8964°W
Report Text: KROS 310915Z AUTO 35007KT 10SM SCT038 SCT080 SCT100 M02/M09 A3046 RMK AO2 T10251086
Loading
Personal Weather Stations






























Interactive Weather Map
Tropical Storm Tracking
New forecast layout! Learn more

10-Day Weather Forecast

Advertisements
Track Severe Weather on mobile